sensor_id;sensor_type;location;lat;lon;timestamp;pressure;altitude;pressure_sealevel;temperature;humidity
9235;BME280;4652;42.716;23.218;2023-02-12T00:00:07;95809.50;;;-0.22;60.76
9235;BME280;4652;42.716;23.218;2023-02-12T00:06:50;95795.88;;;-0.25;61.08
9235;BME280;4652;42.716;23.218;2023-02-12T00:13:32;95799.31;;;-0.25;60.55
9235;BME280;4652;42.716;23.218;2023-02-12T00:20:15;95807.28;;;-0.18;60.05
9235;BME280;4652;42.716;23.218;2023-02-12T00:26:57;95787.13;;;-0.26;59.69
9235;BME280;4652;42.716;23.218;2023-02-12T00:33:39;95791.41;;;-0.18;60.28
9235;BME280;4652;42.716;23.218;2023-02-12T00:40:23;95773.72;;;-0.11;59.64
9235;BME280;4652;42.716;23.218;2023-02-12T00:47:05;95744.03;;;0.00;59.23
9235;BME280;4652;42.716;23.218;2023-02-12T00:53:47;95742.59;;;0.17;58.30
9235;BME280;4652;42.716;23.218;2023-02-12T01:00:30;95708.59;;;0.01;59.51
9235;BME280;4652;42.716;23.218;2023-02-12T01:07:12;95735.88;;;0.28;60.51
9235;BME280;4652;42.716;23.218;2023-02-12T01:13:54;95751.19;;;0.45;60.14
9235;BME280;4652;42.716;23.218;2023-02-12T01:20:38;95749.97;;;0.48;59.60
9235;BME280;4652;42.716;23.218;2023-02-12T01:27:20;95756.09;;;0.48;59.56
9235;BME280;4652;42.716;23.218;2023-02-12T01:34:03;95766.47;;;0.50;59.84
9235;BME280;4652;42.716;23.218;2023-02-12T01:40:47;95750.59;;;0.43;60.38
9235;BME280;4652;42.716;23.218;2023-02-12T01:47:29;95737.75;;;0.27;60.32
9235;BME280;4652;42.716;23.218;2023-02-12T01:54:12;95702.66;;;0.06;61.38
9235;BME280;4652;42.716;23.218;2023-02-12T14:18:42;95993.63;;;4.75;81.13
9235;BME280;4652;42.716;23.218;2023-02-12T14:25:41;95970.81;;;4.06;88.28
9235;BME280;4652;42.716;23.218;2023-02-12T14:33:08;96006.22;;;4.13;90.13
9235;BME280;4652;42.716;23.218;2023-02-12T14:54:24;96034.13;;;3.62;100.00
9235;BME280;4652;42.716;23.218;2023-02-12T15:01:09;96033.19;;;3.43;100.00
9235;BME280;4652;42.716;23.218;2023-02-12T15:07:55;96049.41;;;3.41;100.00
9235;BME280;4652;42.716;23.218;2023-02-12T15:14:42;96072.13;;;3.44;100.00
9235;BME280;4652;42.716;23.218;2023-02-12T15:21:30;96064.81;;;3.33;100.00
9235;BME280;4652;42.716;23.218;2023-02-12T15:28:19;96099.59;;;3.38;100.00
9235;BME280;4652;42.716;23.218;2023-02-12T15:35:03;96111.50;;;3.29;100.00
9235;BME280;4652;42.716;23.218;2023-02-12T15:41:46;96091.34;;;3.08;100.00
9235;BME280;4652;42.716;23.218;2023-02-12T15:48:30;96090.34;;;3.03;100.00
9235;BME280;4652;42.716;23.218;2023-02-12T15:55:15;96101.00;;;2.96;100.00
9235;BME280;4652;42.716;23.218;2023-02-12T16:02:00;96119.25;;;2.92;100.00
9235;BME280;4652;42.716;23.218;2023-02-12T16:08:44;96146.41;;;3.08;100.00
9235;BME280;4652;42.716;23.218;2023-02-12T16:15:29;96151.94;;;3.00;100.00
9235;BME280;4652;42.716;23.218;2023-02-12T16:37:45;96190.63;;;3.09;100.00
9235;BME280;4652;42.716;23.218;2023-02-12T16:44:28;96202.09;;;3.03;100.00
9235;BME280;4652;42.716;23.218;2023-02-12T16:51:23;96148.53;;;2.66;100.00
9235;BME280;4652;42.716;23.218;2023-02-12T16:58:07;96185.38;;;2.69;100.00
9235;BME280;4652;42.716;23.218;2023-02-12T17:04:49;96233.41;;;2.87;100.00
9235;BME280;4652;42.716;23.218;2023-02-12T17:11:31;96235.28;;;2.80;100.00
9235;BME280;4652;42.716;23.218;2023-02-12T17:18:15;96251.03;;;2.75;100.00
9235;BME280;4652;42.716;23.218;2023-02-12T17:24:57;96270.06;;;2.79;100.00
9235;BME280;4652;42.716;23.218;2023-02-12T17:31:42;96273.50;;;2.60;100.00
9235;BME280;4652;42.716;23.218;2023-02-12T17:38:28;96291.13;;;2.67;100.00
9235;BME280;4652;42.716;23.218;2023-02-12T17:45:10;96294.19;;;2.71;100.00
9235;BME280;4652;42.716;23.218;2023-02-12T17:51:52;96304.00;;;2.57;100.00
9235;BME280;4652;42.716;23.218;2023-02-12T17:58:35;96300.22;;;2.06;100.00
9235;BME280;4652;42.716;23.218;2023-02-12T18:05:17;96310.44;;;2.09;100.00
9235;BME280;4652;42.716;23.218;2023-02-12T18:11:59;96308.00;;;2.14;100.00
9235;BME280;4652;42.716;23.218;2023-02-12T18:18:43;96309.09;;;1.78;100.00
9235;BME280;4652;42.716;23.218;2023-02-12T18:25:25;96321.88;;;1.28;100.00
9235;BME280;4652;42.716;23.218;2023-02-12T18:32:08;96325.97;;;1.30;100.00
9235;BME280;4652;42.716;23.218;2023-02-12T18:38:55;96317.22;;;1.30;100.00
9235;BME280;4652;42.716;23.218;2023-02-12T18:45:40;96345.28;;;1.45;100.00
9235;BME280;4652;42.716;23.218;2023-02-12T18:52:22;96225.63;;;0.44;100.00
9235;BME280;4652;42.716;23.218;2023-02-12T18:59:07;96326.66;;;1.39;100.00
9235;BME280;4652;42.716;23.218;2023-02-12T19:05:51;96347.44;;;1.69;100.00
9235;BME280;4652;42.716;23.218;2023-02-12T19:12:33;96373.78;;;1.64;100.00
9235;BME280;4652;42.716;23.218;2023-02-12T19:19:19;96374.81;;;1.70;100.00
9235;BME280;4652;42.716;23.218;2023-02-12T19:26:02;96369.56;;;1.76;100.00
9235;BME280;4652;42.716;23.218;2023-02-12T19:32:46;96351.03;;;1.49;100.00
9235;BME280;4652;42.716;23.218;2023-02-12T19:39:36;96382.81;;;1.42;100.00
9235;BME280;4652;42.716;23.218;2023-02-12T19:46:19;96386.16;;;1.23;100.00
9235;BME280;4652;42.716;23.218;2023-02-12T19:53:01;96404.09;;;1.00;100.00
9235;BME280;4652;42.716;23.218;2023-02-12T19:59:45;96404.38;;;0.63;100.00
9235;BME280;4652;42.716;23.218;2023-02-12T20:08:14;96410.16;;;0.16;100.00
9235;BME280;4652;42.716;23.218;2023-02-12T20:14:56;96426.81;;;-0.20;100.00
9235;BME280;4652;42.716;23.218;2023-02-12T20:21:42;96413.94;;;-0.37;100.00
9235;BME280;4652;42.716;23.218;2023-02-12T20:28:26;96425.69;;;-0.69;100.00
9235;BME280;4652;42.716;23.218;2023-02-12T20:35:08;96415.59;;;-0.88;100.00
9235;BME280;4652;42.716;23.218;2023-02-12T20:41:50;96437.72;;;-1.04;100.00
9235;BME280;4652;42.716;23.218;2023-02-12T20:48:34;96441.09;;;-1.33;100.00
9235;BME280;4652;42.716;23.218;2023-02-12T20:55:16;96445.66;;;-1.57;100.00
9235;BME280;4652;42.716;23.218;2023-02-12T21:01:59;96453.59;;;-1.57;100.00
9235;BME280;4652;42.716;23.218;2023-02-12T21:08:42;96459.25;;;-1.68;100.00
9235;BME280;4652;42.716;23.218;2023-02-12T21:15:25;96391.56;;;-2.23;100.00
9235;BME280;4652;42.716;23.218;2023-02-12T21:22:11;96458.81;;;-1.72;100.00
9235;BME280;4652;42.716;23.218;2023-02-12T21:28:56;96466.44;;;-1.54;100.00
9235;BME280;4652;42.716;23.218;2023-02-12T21:35:38;96480.19;;;-1.59;100.00
9235;BME280;4652;42.716;23.218;2023-02-12T21:42:21;96485.66;;;-1.68;100.00
9235;BME280;4652;42.716;23.218;2023-02-12T21:49:04;96495.09;;;-1.66;100.00
9235;BME280;4652;42.716;23.218;2023-02-12T21:55:47;96486.97;;;-1.64;100.00
9235;BME280;4652;42.716;23.218;2023-02-12T22:02:29;96505.34;;;-1.40;100.00
9235;BME280;4652;42.716;23.218;2023-02-12T22:09:14;96511.47;;;-1.17;100.00
9235;BME280;4652;42.716;23.218;2023-02-12T22:15:56;96509.13;;;-1.12;100.00
9235;BME280;4652;42.716;23.218;2023-02-12T22:22:38;96484.81;;;-1.30;100.00
9235;BME280;4652;42.716;23.218;2023-02-12T22:29:22;96518.16;;;-1.29;100.00
9235;BME280;4652;42.716;23.218;2023-02-12T22:36:06;96507.59;;;-1.29;100.00
9235;BME280;4652;42.716;23.218;2023-02-12T22:42:49;96527.28;;;-1.09;100.00
9235;BME280;4652;42.716;23.218;2023-02-12T22:49:32;96525.38;;;-0.92;100.00
9235;BME280;4652;42.716;23.218;2023-02-12T22:56:14;96503.25;;;-0.99;100.00
9235;BME280;4652;42.716;23.218;2023-02-12T23:02:57;96528.06;;;-0.78;100.00
9235;BME280;4652;42.716;23.218;2023-02-12T23:09:40;96535.81;;;-0.76;100.00
9235;BME280;4652;42.716;23.218;2023-02-12T23:16:23;96535.94;;;-0.70;100.00
9235;BME280;4652;42.716;23.218;2023-02-12T23:23:05;96532.34;;;-0.77;100.00
9235;BME280;4652;42.716;23.218;2023-02-12T23:29:48;96553.03;;;-1.34;100.00
9235;BME280;4652;42.716;23.218;2023-02-12T23:36:30;96557.69;;;-1.83;100.00
9235;BME280;4652;42.716;23.218;2023-02-12T23:43:12;96566.69;;;-2.16;100.00
9235;BME280;4652;42.716;23.218;2023-02-12T23:49:56;96566.69;;;-2.16;100.00
9235;BME280;4652;42.716;23.218;2023-02-12T23:56:38;96542.63;;;-2.53;100.00
